sensor_id;sensor_type;location;lat;lon;timestamp;pressure;altitude;pressure_sealevel;temperature;humidity
35151;BME280;55720;51.972;4.624;2023-04-02T00:01:40;100373.75;;;6.30;100.00
35151;BME280;55720;51.972;4.624;2023-04-02T00:04:21;100369.09;;;6.31;100.00
35151;BME280;55720;51.972;4.624;2023-04-02T00:06:55;100371.03;;;6.30;100.00
35151;BME280;55720;51.972;4.624;2023-04-02T00:09:24;100385.75;;;6.29;100.00
35151;BME280;55720;51.972;4.624;2023-04-02T00:11:52;100380.31;;;6.29;100.00
35151;BME280;55720;51.972;4.624;2023-04-02T00:14:32;100387.09;;;6.32;100.00
35151;BME280;55720;51.972;4.624;2023-04-02T00:17:01;100388.50;;;6.29;100.00
35151;BME280;55720;51.972;4.624;2023-04-02T00:19:35;100391.84;;;6.26;100.00
35151;BME280;55720;51.972;4.624;2023-04-02T00:22:25;100404.84;;;6.21;100.00
35151;BME280;55720;51.972;4.624;2023-04-02T00:24:53;100398.41;;;6.17;100.00
35151;BME280;55720;51.972;4.624;2023-04-02T00:27:19;100404.66;;;6.17;100.00
35151;BME280;55720;51.972;4.624;2023-04-02T00:29:54;100405.28;;;6.14;100.00
35151;BME280;55720;51.972;4.624;2023-04-02T00:32:40;100401.88;;;6.09;100.00
35151;BME280;55720;51.972;4.624;2023-04-02T00:35:19;100403.94;;;6.03;100.00
35151;BME280;55720;51.972;4.624;2023-04-02T00:37:46;100409.88;;;6.05;100.00
35151;BME280;55720;51.972;4.624;2023-04-02T00:40:23;100411.78;;;6.05;100.00
35151;BME280;55720;51.972;4.624;2023-04-02T00:42:49;100429.47;;;6.07;100.00
35151;BME280;55720;51.972;4.624;2023-04-02T00:45:31;100437.13;;;6.05;100.00
35151;BME280;55720;51.972;4.624;2023-04-02T00:48:14;100444.66;;;6.00;100.00
35151;BME280;55720;51.972;4.624;2023-04-02T00:50:42;100446.06;;;5.97;100.00
35151;BME280;55720;51.972;4.624;2023-04-02T00:53:23;100445.88;;;5.93;100.00
35151;BME280;55720;51.972;4.624;2023-04-02T00:55:50;100452.63;;;5.96;100.00
35151;BME280;55720;51.972;4.624;2023-04-02T01:00:49;100467.38;;;5.95;100.00
35151;BME280;55720;51.972;4.624;2023-04-02T01:06:13;100481.91;;;5.90;100.00
35151;BME280;55720;51.972;4.624;2023-04-02T01:14:38;100487.69;;;5.89;100.00
35151;BME280;55720;51.972;4.624;2023-04-02T01:20:11;100506.03;;;5.83;100.00
35151;BME280;55720;51.972;4.624;2023-04-02T01:22:57;100506.34;;;5.82;100.00
35151;BME280;55720;51.972;4.624;2023-04-02T01:25:33;100503.13;;;5.80;100.00
35151;BME280;55720;51.972;4.624;2023-04-02T01:28:12;100511.09;;;5.76;100.00
35151;BME280;55720;51.972;4.624;2023-04-02T01:30:49;100515.44;;;5.77;100.00
35151;BME280;55720;51.972;4.624;2023-04-02T01:33:18;100524.72;;;5.76;100.00
35151;BME280;55720;51.972;4.624;2023-04-02T01:35:51;100524.88;;;5.71;100.00
35151;BME280;55720;51.972;4.624;2023-04-02T01:38:26;100536.66;;;5.67;100.00
35151;BME280;55720;51.972;4.624;2023-04-02T01:41:08;100532.44;;;5.61;100.00
35151;BME280;55720;51.972;4.624;2023-04-02T01:46:43;100540.94;;;5.59;100.00
35151;BME280;55720;51.972;4.624;2023-04-02T01:49:18;100558.50;;;5.53;100.00
35151;BME280;55720;51.972;4.624;2023-04-02T01:51:50;100561.81;;;5.50;100.00
35151;BME280;55720;51.972;4.624;2023-04-02T01:54:17;100562.31;;;5.52;100.00
35151;BME280;55720;51.972;4.624;2023-04-02T01:56:44;100558.31;;;5.50;100.00
35151;BME280;55720;51.972;4.624;2023-04-02T01:59:11;100563.22;;;5.47;100.00
35151;BME280;55720;51.972;4.624;2023-04-02T02:01:43;100569.69;;;5.52;100.00
35151;BME280;55720;51.972;4.624;2023-04-02T02:04:11;100575.13;;;5.52;100.00
35151;BME280;55720;51.972;4.624;2023-04-02T02:06:38;100579.06;;;5.45;100.00
35151;BME280;55720;51.972;4.624;2023-04-02T02:09:05;100590.25;;;5.44;100.00
35151;BME280;55720;51.972;4.624;2023-04-02T02:11:32;100583.72;;;5.45;100.00
35151;BME280;55720;51.972;4.624;2023-04-02T02:14:00;100584.53;;;5.45;100.00
35151;BME280;55720;51.972;4.624;2023-04-02T02:16:27;100594.69;;;5.40;100.00
35151;BME280;55720;51.972;4.624;2023-04-02T02:19:03;100598.84;;;5.37;100.00
35151;BME280;55720;51.972;4.624;2023-04-02T02:21:59;100599.94;;;5.36;100.00
35151;BME280;55720;51.972;4.624;2023-04-02T02:24:30;100611.44;;;5.33;100.00
35151;BME280;55720;51.972;4.624;2023-04-02T02:29:27;100626.97;;;5.33;100.00
35151;BME280;55720;51.972;4.624;2023-04-02T02:31:54;100622.34;;;5.33;100.00
35151;BME280;55720;51.972;4.624;2023-04-02T02:34:30;100621.84;;;5.31;100.00
35151;BME280;55720;51.972;4.624;2023-04-02T02:37:06;100628.28;;;5.35;100.00
35151;BME280;55720;51.972;4.624;2023-04-02T02:39:41;100631.81;;;5.36;100.00
35151;BME280;55720;51.972;4.624;2023-04-02T02:42:15;100635.34;;;5.36;100.00
35151;BME280;55720;51.972;4.624;2023-04-02T02:44:46;100648.47;;;5.34;100.00
35151;BME280;55720;51.972;4.624;2023-04-02T02:47:22;100641.69;;;5.32;100.00
35151;BME280;55720;51.972;4.624;2023-04-02T02:49:52;100649.25;;;5.21;100.00
35151;BME280;55720;51.972;4.624;2023-04-02T02:52:30;100663.56;;;5.13;100.00
35151;BME280;55720;51.972;4.624;2023-04-02T02:55:00;100664.94;;;5.11;100.00
35151;BME280;55720;51.972;4.624;2023-04-02T02:57:31;100676.16;;;5.09;100.00
35151;BME280;55720;51.972;4.624;2023-04-02T02:59:59;100680.06;;;5.03;100.00
35151;BME280;55720;51.972;4.624;2023-04-02T03:02:27;100682.19;;;5.06;100.00
35151;BME280;55720;51.972;4.624;2023-04-02T03:04:54;100680.06;;;5.03;100.00
35151;BME280;55720;51.972;4.624;2023-04-02T03:07:22;100700.31;;;4.97;100.00
35151;BME280;55720;51.972;4.624;2023-04-02T03:18:06;100719.34;;;4.97;100.00
35151;BME280;55720;51.972;4.624;2023-04-02T03:20:50;100717.66;;;5.01;100.00
35151;BME280;55720;51.972;4.624;2023-04-02T03:23:24;100719.28;;;5.02;100.00
35151;BME280;55720;51.972;4.624;2023-04-02T03:28:22;100746.13;;;4.90;100.00
35151;BME280;55720;51.972;4.624;2023-04-02T03:30:54;100746.41;;;4.88;100.00
35151;BME280;55720;51.972;4.624;2023-04-02T03:33:49;100737.97;;;4.90;100.00
35151;BME280;55720;51.972;4.624;2023-04-02T03:41:28;100742.16;;;4.82;100.00
35151;BME280;55720;51.972;4.624;2023-04-02T03:43:59;100758.28;;;4.79;100.00
35151;BME280;55720;51.972;4.624;2023-04-02T03:46:34;100766.44;;;4.79;100.00
35151;BME280;55720;51.972;4.624;2023-04-02T03:49:08;100778.13;;;4.79;100.00
35151;BME280;55720;51.972;4.624;2023-04-02T03:51:46;100787.97;;;4.75;100.00
35151;BME280;55720;51.972;4.624;2023-04-02T03:54:15;100791.72;;;4.79;100.00
35151;BME280;55720;51.972;4.624;2023-04-02T03:56:43;100791.44;;;4.81;100.00
35151;BME280;55720;51.972;4.624;2023-04-02T03:59:38;100795.47;;;4.83;100.00
35151;BME280;55720;51.972;4.624;2023-04-02T04:04:45;100811.00;;;4.83;100.00
35151;BME280;55720;51.972;4.624;2023-04-02T04:07:36;100813.66;;;4.88;100.00
35151;BME280;55720;51.972;4.624;2023-04-02T04:10:05;100822.09;;;4.86;100.00
35151;BME280;55720;51.972;4.624;2023-04-02T04:12:35;100823.28;;;4.80;100.00
35151;BME280;55720;51.972;4.624;2023-04-02T04:15:28;100831.34;;;4.67;100.00
35151;BME280;55720;51.972;4.624;2023-04-02T04:20:56;100842.06;;;4.58;100.00
35151;BME280;55720;51.972;4.624;2023-04-02T04:23:30;100847.56;;;4.53;100.00
35151;BME280;55720;51.972;4.624;2023-04-02T04:25:58;100846.47;;;4.54;100.00
35151;BME280;55720;51.972;4.624;2023-04-02T04:28:39;100851.91;;;4.54;100.00
35151;BME280;55720;51.972;4.624;2023-04-02T04:33:44;100866.25;;;4.60;100.00
35151;BME280;55720;51.972;4.624;2023-04-02T04:36:23;100871.69;;;4.60;100.00
35151;BME280;55720;51.972;4.624;2023-04-02T04:38:55;100875.53;;;4.59;100.00
35151;BME280;55720;51.972;4.624;2023-04-02T04:41:33;100877.59;;;4.43;100.00
35151;BME280;55720;51.972;4.624;2023-04-02T04:44:09;100886.63;;;4.38;100.00
35151;BME280;55720;51.972;4.624;2023-04-02T04:46:56;100893.75;;;4.34;100.00
35151;BME280;55720;51.972;4.624;2023-04-02T04:49:34;100895.13;;;4.32;100.00
35151;BME280;55720;51.972;4.624;2023-04-02T04:52:08;100897.56;;;4.33;100.00
35151;BME280;55720;51.972;4.624;2023-04-02T04:54:38;100907.69;;;4.28;100.00
35151;BME280;55720;51.972;4.624;2023-04-02T04:57:04;100911.25;;;4.23;100.00
35151;BME280;55720;51.972;4.624;2023-04-02T04:59:43;100921.03;;;4.24;100.00
35151;BME280;55720;51.972;4.624;2023-04-02T05:02:23;100932.75;;;4.20;100.00
35151;BME280;55720;51.972;4.624;2023-04-02T05:04:52;100927.41;;;4.15;100.00
35151;BME280;55720;51.972;4.624;2023-04-02T05:10:06;100957.63;;;4.08;100.00
35151;BME280;55720;51.972;4.624;2023-04-02T05:12:59;100950.31;;;4.04;100.00
35151;BME280;55720;51.972;4.624;2023-04-02T05:15:49;100961.78;;;4.01;100.00
35151;BME280;55720;51.972;4.624;2023-04-02T05:18:30;100960.41;;;3.98;100.00
35151;BME280;55720;51.972;4.624;2023-04-02T05:24:26;100975.13;;;3.97;100.00
35151;BME280;55720;51.972;4.624;2023-04-02T05:26:46;100981.06;;;3.99;100.00
35151;BME280;55720;51.972;4.624;2023-04-02T05:29:24;100995.22;;;3.96;100.00
35151;BME280;55720;51.972;4.624;2023-04-02T05:32:18;101001.22;;;3.93;100.00
35151;BME280;55720;51.972;4.624;2023-04-02T05:34:51;101008.84;;;3.91;100.00
35151;BME280;55720;51.972;4.624;2023-04-02T05:37:20;101014.03;;;3.87;100.00
35151;BME280;55720;51.972;4.624;2023-04-02T05:39:54;101021.66;;;3.85;100.00
35151;BME280;55720;51.972;4.624;2023-04-02T05:42:26;101037.69;;;3.87;100.00
35151;BME280;55720;51.972;4.624;2023-04-02T05:45:23;101038.78;;;3.86;100.00
35151;BME280;55720;51.972;4.624;2023-04-02T05:47:53;101051.28;;;3.82;100.00
35151;BME280;55720;51.972;4.624;2023-04-02T05:50:31;101060.00;;;3.79;100.00
35151;BME280;55720;51.972;4.624;2023-04-02T05:53:20;101070.88;;;3.74;100.00
35151;BME280;55720;51.972;4.624;2023-04-02T05:56:21;101076.63;;;3.72;100.00
35151;BME280;55720;51.972;4.624;2023-04-02T05:59:06;101091.28;;;3.71;100.00
35151;BME280;55720;51.972;4.624;2023-04-02T06:01:36;101091.28;;;3.71;100.00
35151;BME280;55720;51.972;4.624;2023-04-02T06:12:21;101130.69;;;3.64;100.00
35151;BME280;55720;51.972;4.624;2023-04-02T06:14:48;101146.72;;;3.60;100.00
35151;BME280;55720;51.972;4.624;2023-04-02T06:17:17;101164.66;;;3.56;100.00
35151;BME280;55720;51.972;4.624;2023-04-02T06:19:43;101169.88;;;3.42;100.00
35151;BME280;55720;51.972;4.624;2023-04-02T06:22:31;101189.69;;;3.43;100.00
35151;BME280;55720;51.972;4.624;2023-04-02T06:25:08;101207.09;;;3.27;100.00
35151;BME280;55720;51.972;4.624;2023-04-02T06:27:37;101239.94;;;3.15;100.00
35151;BME280;55720;51.972;4.624;2023-04-02T06:30:05;101257.84;;;3.11;100.00
35151;BME280;55720;51.972;4.624;2023-04-02T06:32:32;101266.53;;;3.23;100.00
35151;BME280;55720;51.972;4.624;2023-04-02T06:34:57;101281.16;;;3.22;100.00
35151;BME280;55720;51.972;4.624;2023-04-02T06:37:34;101314.56;;;3.23;100.00
35151;BME280;55720;51.972;4.624;2023-04-02T06:40:02;101330.03;;;3.32;100.00
35151;BME280;55720;51.972;4.624;2023-04-02T06:42:30;101353.91;;;3.20;100.00
35151;BME280;55720;51.972;4.624;2023-04-02T06:44:57;101356.63;;;3.20;100.00
35151;BME280;55720;51.972;4.624;2023-04-02T06:47:39;101379.69;;;3.18;100.00
35151;BME280;55720;51.972;4.624;2023-04-02T06:50:08;101396.78;;;3.18;100.00
35151;BME280;55720;51.972;4.624;2023-04-02T06:52:43;101406.28;;;3.26;100.00
35151;BME280;55720;51.972;4.624;2023-04-02T06:57:46;101439.41;;;3.28;100.00
35151;BME280;55720;51.972;4.624;2023-04-02T07:00:24;101448.03;;;3.15;100.00
35151;BME280;55720;51.972;4.624;2023-04-02T07:02:51;101458.09;;;3.14;100.00
35151;BME280;55720;51.972;4.624;2023-04-02T07:05:17;101465.97;;;3.16;100.00
35151;BME280;55720;51.972;4.624;2023-04-02T07:07:43;101490.09;;;3.07;100.00
35151;BME280;55720;51.972;4.624;2023-04-02T07:10:11;101509.31;;;3.01;100.00
35151;BME280;55720;51.972;4.624;2023-04-02T07:12:37;101526.94;;;2.93;100.00
35151;BME280;55720;51.972;4.624;2023-04-02T07:15:02;101538.31;;;2.95;100.00
35151;BME280;55720;51.972;4.624;2023-04-02T07:17:28;101545.41;;;3.01;100.00
35151;BME280;55720;51.972;4.624;2023-04-02T07:19:53;101566.19;;;2.80;100.00
35151;BME280;55720;51.972;4.624;2023-04-02T07:22:19;101582.41;;;2.75;100.00
35151;BME280;55720;51.972;4.624;2023-04-02T07:24:45;101587.06;;;2.75;100.00
35151;BME280;55720;51.972;4.624;2023-04-02T07:27:12;101590.88;;;2.84;100.00
35151;BME280;55720;51.972;4.624;2023-04-02T07:29:38;101597.66;;;2.86;100.00
35151;BME280;55720;51.972;4.624;2023-04-02T07:32:08;101615.25;;;2.79;100.00
35151;BME280;55720;51.972;4.624;2023-04-02T07:34:34;101613.16;;;2.91;100.00
35151;BME280;55720;51.972;4.624;2023-04-02T07:36:59;101610.06;;;3.14;100.00
35151;BME280;55720;51.972;4.624;2023-04-02T07:39:27;101611.66;;;3.15;100.00
35151;BME280;55720;51.972;4.624;2023-04-02T07:41:58;101613.38;;;3.31;100.00
35151;BME280;55720;51.972;4.624;2023-04-02T07:44:24;101635.50;;;3.08;100.00
35151;BME280;55720;51.972;4.624;2023-04-02T07:46:49;101646.56;;;2.96;100.00
35151;BME280;55720;51.972;4.624;2023-04-02T07:49:15;101666.28;;;2.82;100.00
35151;BME280;55720;51.972;4.624;2023-04-02T07:51:41;101662.47;;;2.78;100.00
35151;BME280;55720;51.972;4.624;2023-04-02T07:54:06;101673.03;;;2.79;100.00
35151;BME280;55720;51.972;4.624;2023-04-02T07:56:34;101672.25;;;2.84;100.00
35151;BME280;55720;51.972;4.624;2023-04-02T07:59:00;101673.06;;;2.84;100.00
35151;BME280;55720;51.972;4.624;2023-04-02T08:01:26;101672.53;;;2.87;100.00
35151;BME280;55720;51.972;4.624;2023-04-02T08:03:55;101680.91;;;2.81;100.00
35151;BME280;55720;51.972;4.624;2023-04-02T08:06:22;101665.88;;;3.00;100.00
35151;BME280;55720;51.972;4.624;2023-04-02T08:08:48;101666.16;;;3.04;100.00
35151;BME280;55720;51.972;4.624;2023-04-02T08:11:13;101658.16;;;3.29;100.00
35151;BME280;55720;51.972;4.624;2023-04-02T08:13:39;101647.41;;;3.54;100.00
35151;BME280;55720;51.972;4.624;2023-04-02T08:16:05;101657.63;;;3.37;100.00
35151;BME280;55720;51.972;4.624;2023-04-02T08:18:32;101667.72;;;3.46;100.00
35151;BME280;55720;51.972;4.624;2023-04-02T08:20:58;101680.50;;;3.46;100.00
35151;BME280;55720;51.972;4.624;2023-04-02T08:23:24;101693.84;;;3.63;100.00
35151;BME280;55720;51.972;4.624;2023-04-02T08:25:50;101703.00;;;3.41;100.00
35151;BME280;55720;51.972;4.624;2023-04-02T08:28:15;101697.97;;;3.70;100.00
35151;BME280;55720;51.972;4.624;2023-04-02T08:30:41;101707.34;;;3.47;100.00
35151;BME280;55720;51.972;4.624;2023-04-02T08:33:06;101730.19;;;3.46;100.00
35151;BME280;55720;51.972;4.624;2023-04-02T08:35:32;101734.63;;;3.73;100.00
35151;BME280;55720;51.972;4.624;2023-04-02T08:37:57;101758.34;;;3.35;100.00
35151;BME280;55720;51.972;4.624;2023-04-02T08:40:31;101766.38;;;3.20;100.00
35151;BME280;55720;51.972;4.624;2023-04-02T08:45:52;101769.25;;;3.45;100.00
35151;BME280;55720;51.972;4.624;2023-04-02T08:48:20;101781.00;;;3.56;100.00
35151;BME280;55720;51.972;4.624;2023-04-02T08:50:48;101793.00;;;3.23;100.00
35151;BME280;55720;51.972;4.624;2023-04-02T08:53:15;101799.59;;;3.32;100.00
35151;BME280;55720;51.972;4.624;2023-04-02T08:58:38;101804.97;;;3.27;100.00
35151;BME280;55720;51.972;4.624;2023-04-02T09:01:06;101804.31;;;3.52;100.00
35151;BME280;55720;51.972;4.624;2023-04-02T09:03:39;101815.72;;;3.49;100.00
35151;BME280;55720;51.972;4.624;2023-04-02T09:06:08;101823.22;;;3.79;100.00
35151;BME280;55720;51.972;4.624;2023-04-02T09:08:37;101845.34;;;3.56;100.00
35151;BME280;55720;51.972;4.624;2023-04-02T09:13:42;101866.00;;;3.57;100.00
35151;BME280;55720;51.972;4.624;2023-04-02T09:18:37;101888.25;;;3.59;100.00
35151;BME280;55720;51.972;4.624;2023-04-02T09:21:30;101925.41;;;3.21;100.00
35151;BME280;55720;51.972;4.624;2023-04-02T09:23:57;101927.47;;;3.36;100.00
35151;BME280;55720;51.972;4.624;2023-04-02T09:26:31;101929.28;;;3.62;100.00
35151;BME280;55720;51.972;4.624;2023-04-02T09:31:39;101944.75;;;3.93;100.00
35151;BME280;55720;51.972;4.624;2023-04-02T09:34:27;101960.19;;;3.88;100.00
35151;BME280;55720;51.972;4.624;2023-04-02T09:36:54;101970.22;;;3.82;100.00
35151;BME280;55720;51.972;4.624;2023-04-02T09:39:23;101982.09;;;3.76;100.00
35151;BME280;55720;51.972;4.624;2023-04-02T09:41:52;101993.16;;;4.02;100.00
35151;BME280;55720;51.972;4.624;2023-04-02T09:46:51;102015.75;;;3.43;100.00
35151;BME280;55720;51.972;4.624;2023-04-02T09:49:20;102024.59;;;3.34;100.00
35151;BME280;55720;51.972;4.624;2023-04-02T09:52:05;102016.84;;;3.74;100.00
35151;BME280;55720;51.972;4.624;2023-04-02T09:54:31;101989.34;;;4.39;100.00
35151;BME280;55720;51.972;4.624;2023-04-02T09:57:00;101996.09;;;4.84;100.00
35151;BME280;55720;51.972;4.624;2023-04-02T09:59:26;102020.91;;;4.97;100.00
35151;BME280;55720;51.972;4.624;2023-04-02T10:04:37;102054.00;;;5.46;100.00
35151;BME280;55720;51.972;4.624;2023-04-02T10:07:29;102074.22;;;5.66;100.00
35151;BME280;55720;51.972;4.624;2023-04-02T10:10:05;102097.69;;;5.77;100.00
35151;BME280;55720;51.972;4.624;2023-04-02T10:12:41;102109.66;;;5.71;100.00
35151;BME280;55720;51.972;4.624;2023-04-02T10:15:14;102140.19;;;5.68;100.00
35151;BME280;55720;51.972;4.624;2023-04-02T10:17:41;102153.22;;;5.61;100.00
35151;BME280;55720;51.972;4.624;2023-04-02T10:20:17;102172.00;;;5.52;100.00
35151;BME280;55720;51.972;4.624;2023-04-02T10:22:44;102170.66;;;5.65;100.00
35151;BME280;55720;51.972;4.624;2023-04-02T10:25:18;102176.00;;;6.02;100.00
35151;BME280;55720;51.972;4.624;2023-04-02T10:27:56;102186.16;;;6.31;100.00
35151;BME280;55720;51.972;4.624;2023-04-02T10:31:01;102191.06;;;6.39;100.00
35151;BME280;55720;51.972;4.624;2023-04-02T10:33:35;102192.16;;;6.38;100.00
35151;BME280;55720;51.972;4.624;2023-04-02T10:36:16;102209.09;;;6.61;100.00
35151;BME280;55720;51.972;4.624;2023-04-02T10:39:09;102214.25;;;6.67;100.00
35151;BME280;55720;51.972;4.624;2023-04-02T10:41:51;102237.75;;;6.68;100.00
35151;BME280;55720;51.972;4.624;2023-04-02T10:50:06;102273.78;;;6.75;100.00
35151;BME280;55720;51.972;4.624;2023-04-02T10:52:45;102269.13;;;6.96;100.00
35151;BME280;55720;51.972;4.624;2023-04-02T10:55:23;102284.69;;;7.26;100.00
35151;BME280;55720;51.972;4.624;2023-04-02T10:57:50;102278.41;;;7.30;100.00
35151;BME280;55720;51.972;4.624;2023-04-02T11:00:22;102290.41;;;7.34;100.00
35151;BME280;55720;51.972;4.624;2023-04-02T11:05:42;102296.44;;;7.26;100.00
35151;BME280;55720;51.972;4.624;2023-04-02T11:10:54;102301.88;;;7.36;100.00
35151;BME280;55720;51.972;4.624;2023-04-02T11:15:50;102321.28;;;7.40;100.00
35151;BME280;55720;51.972;4.624;2023-04-02T11:18:29;102326.22;;;7.18;100.00
35151;BME280;55720;51.972;4.624;2023-04-02T11:21:02;102320.38;;;7.80;100.00
35151;BME280;55720;51.972;4.624;2023-04-02T11:29:11;102345.88;;;7.30;100.00
35151;BME280;55720;51.972;4.624;2023-04-02T11:31:38;102339.34;;;7.41;100.00
35151;BME280;55720;51.972;4.624;2023-04-02T11:34:03;102353.50;;;7.03;100.00
35151;BME280;55720;51.972;4.624;2023-04-02T11:39:45;102371.84;;;7.22;100.00
35151;BME280;55720;51.972;4.624;2023-04-02T11:42:28;102358.97;;;7.63;100.00
35151;BME280;55720;51.972;4.624;2023-04-02T11:44:54;102350.44;;;7.90;100.00
35151;BME280;55720;51.972;4.624;2023-04-02T11:47:24;102356.16;;;7.99;100.00
35151;BME280;55720;51.972;4.624;2023-04-02T11:52:27;102360.44;;;8.25;100.00
35151;BME280;55720;51.972;4.624;2023-04-02T11:55:00;102363.78;;;8.12;100.00
35151;BME280;55720;51.972;4.624;2023-04-02T12:00:49;102370.38;;;8.01;100.00
35151;BME280;55720;51.972;4.624;2023-04-02T12:06:01;102390.09;;;7.87;100.00
35151;BME280;55720;51.972;4.624;2023-04-02T12:08:42;102382.66;;;8.13;100.00
35151;BME280;55720;51.972;4.624;2023-04-02T12:11:36;102389.75;;;8.19;100.00
35151;BME280;55720;51.972;4.624;2023-04-02T12:17:34;102418.44;;;8.37;100.00
35151;BME280;55720;51.972;4.624;2023-04-02T12:20:02;102414.88;;;8.42;100.00
35151;BME280;55720;51.972;4.624;2023-04-02T12:22:34;102420.66;;;8.30;100.00
35151;BME280;55720;51.972;4.624;2023-04-02T12:27:48;102423.38;;;8.25;100.00
35151;BME280;55720;51.972;4.624;2023-04-02T12:30:27;102424.38;;;8.54;100.00
35151;BME280;55720;51.972;4.624;2023-04-02T12:32:52;102430.50;;;8.95;100.00
35151;BME280;55720;51.972;4.624;2023-04-02T12:35:30;102444.69;;;9.07;100.00
35151;BME280;55720;51.972;4.624;2023-04-02T12:37:57;102443.28;;;9.10;100.00
35151;BME280;55720;51.972;4.624;2023-04-02T12:40:24;102451.75;;;9.18;100.00
35151;BME280;55720;51.972;4.624;2023-04-02T12:42:50;102456.59;;;9.26;100.00
35151;BME280;55720;51.972;4.624;2023-04-02T12:45:27;102463.13;;;9.35;100.00
35151;BME280;55720;51.972;4.624;2023-04-02T12:47:56;102474.75;;;9.17;100.00
35151;BME280;55720;51.972;4.624;2023-04-02T12:50:22;102464.53;;;9.28;100.00
35151;BME280;55720;51.972;4.624;2023-04-02T12:52:52;102479.56;;;9.35;100.00
35151;BME280;55720;51.972;4.624;2023-04-02T12:55:22;102494.19;;;9.26;100.00
35151;BME280;55720;51.972;4.624;2023-04-02T12:57:57;102492.41;;;8.96;100.00
35151;BME280;55720;51.972;4.624;2023-04-02T13:05:54;102496.59;;;9.32;100.00
35151;BME280;55720;51.972;4.624;2023-04-02T13:08:27;102491.94;;;9.67;100.00
35151;BME280;55720;51.972;4.624;2023-04-02T13:10:59;102519.47;;;9.52;100.00
35151;BME280;55720;51.972;4.624;2023-04-02T13:13:34;102516.19;;;9.55;100.00
35151;BME280;55720;51.972;4.624;2023-04-02T13:18:29;102527.59;;;9.72;100.00
35151;BME280;55720;51.972;4.624;2023-04-02T13:21:04;102544.91;;;9.62;100.00
35151;BME280;55720;51.972;4.624;2023-04-02T13:25:58;102566.59;;;9.59;100.00
35151;BME280;55720;51.972;4.624;2023-04-02T13:28:24;102560.09;;;9.45;100.00
35151;BME280;55720;51.972;4.624;2023-04-02T13:30:49;102554.53;;;9.60;100.00
35151;BME280;55720;51.972;4.624;2023-04-02T13:33:16;102553.72;;;9.98;100.00
35151;BME280;55720;51.972;4.624;2023-04-02T13:35:42;102553.72;;;9.98;100.00
35151;BME280;55720;51.972;4.624;2023-04-02T13:38:08;102568.63;;;10.21;100.00
35151;BME280;55720;51.972;4.624;2023-04-02T13:40:35;102568.53;;;10.31;100.00
35151;BME280;55720;51.972;4.624;2023-04-02T13:43:02;102561.34;;;10.40;100.00
35151;BME280;55720;51.972;4.624;2023-04-02T13:45:36;102565.31;;;10.53;100.00
35151;BME280;55720;51.972;4.624;2023-04-02T13:48:02;102566.06;;;10.63;100.00
35151;BME280;55720;51.972;4.624;2023-04-02T13:50:30;102574.78;;;10.42;100.00
35151;BME280;55720;51.972;4.624;2023-04-02T13:52:58;102581.22;;;10.56;100.00
35151;BME280;55720;51.972;4.624;2023-04-02T13:55:29;102581.78;;;10.53;100.00
35151;BME280;55720;51.972;4.624;2023-04-02T13:57:56;102586.91;;;10.35;100.00
35151;BME280;55720;51.972;4.624;2023-04-02T14:00:43;102600.63;;;10.35;100.00
35151;BME280;55720;51.972;4.624;2023-04-02T14:03:16;102598.66;;;10.02;100.00
35151;BME280;55720;51.972;4.624;2023-04-02T14:08:43;102613.72;;;10.10;100.00
35151;BME280;55720;51.972;4.624;2023-04-02T14:11:50;102610.13;;;10.19;100.00
35151;BME280;55720;51.972;4.624;2023-04-02T14:20:05;102628.88;;;10.41;100.00
35151;BME280;55720;51.972;4.624;2023-04-02T14:31:15;102635.50;;;10.35;100.00
35151;BME280;55720;51.972;4.624;2023-04-02T14:39:07;102658.38;;;10.25;100.00
35151;BME280;55720;51.972;4.624;2023-04-02T14:41:46;102661.72;;;10.17;100.00
35151;BME280;55720;51.972;4.624;2023-04-02T14:44:14;102661.28;;;9.95;100.00
35151;BME280;55720;51.972;4.624;2023-04-02T14:46:42;102667.78;;;10.14;100.00
35151;BME280;55720;51.972;4.624;2023-04-02T14:49:24;102661.50;;;10.09;100.00
35151;BME280;55720;51.972;4.624;2023-04-02T14:54:43;102672.59;;;9.88;100.00
35151;BME280;55720;51.972;4.624;2023-04-02T14:57:21;102688.38;;;10.12;100.00
35151;BME280;55720;51.972;4.624;2023-04-02T15:00:06;102669.59;;;10.29;100.00
35151;BME280;55720;51.972;4.624;2023-04-02T15:02:57;102678.19;;;10.17;100.00
35151;BME280;55720;51.972;4.624;2023-04-02T15:05:46;102685.88;;;10.10;100.00
35151;BME280;55720;51.972;4.624;2023-04-02T15:13:29;102690.69;;;9.89;100.00
35151;BME280;55720;51.972;4.624;2023-04-02T15:16:09;102697.50;;;9.97;100.00
35151;BME280;55720;51.972;4.624;2023-04-02T15:18:36;102699.25;;;9.83;100.00
35151;BME280;55720;51.972;4.624;2023-04-02T15:23:48;102692.00;;;9.38;100.00
35151;BME280;55720;51.972;4.624;2023-04-02T15:31:47;102717.28;;;9.20;100.00
35151;BME280;55720;51.972;4.624;2023-04-02T15:36:54;102720.56;;;9.12;100.00
35151;BME280;55720;51.972;4.624;2023-04-02T15:39:34;102709.91;;;9.05;100.00
35151;BME280;55720;51.972;4.624;2023-04-02T15:44:40;102723.06;;;8.98;100.00
35151;BME280;55720;51.972;4.624;2023-04-02T15:50:18;102730.75;;;8.91;100.00
35151;BME280;55720;51.972;4.624;2023-04-02T15:56:07;102744.16;;;8.72;100.00
35151;BME280;55720;51.972;4.624;2023-04-02T16:04:16;102738.97;;;8.71;100.00
35151;BME280;55720;51.972;4.624;2023-04-02T16:07:17;102737.59;;;8.68;100.00
35151;BME280;55720;51.972;4.624;2023-04-02T16:10:11;102742.00;;;8.64;100.00
35151;BME280;55720;51.972;4.624;2023-04-02T16:12:39;102741.72;;;8.61;100.00
35151;BME280;55720;51.972;4.624;2023-04-02T16:15:20;102755.66;;;8.59;100.00
35151;BME280;55720;51.972;4.624;2023-04-02T16:17:55;102763.03;;;8.54;100.00
35151;BME280;55720;51.972;4.624;2023-04-02T16:20:25;102763.59;;;8.51;100.00
35151;BME280;55720;51.972;4.624;2023-04-02T16:23:13;102769.63;;;8.48;100.00